Time;durP1;ratioP1;P1;durP2;ratioP2;P2;SDS_P1;SDS_P2;PMS_P1;PMS_P2;Temp;Humidity;BMP_temperature;BMP_pressure;BME280_temperature;BME280_humidity;BME280_pressure;Samples;Min_cycle;Max_cycle;Signal;HPM_P1;HPM_P2
2023/01/10 00:00:39;;;;;;;1.13;0.80;;;6.20;1.00;;;;;;5058301;28;20459;-36
2023/01/10 00:03:07;;;;;;;1.50;1.00;;;6.20;1.00;;;;;;5057796;28;20439;-36
2023/01/10 00:05:34;;;;;;;1.63;0.60;;;6.20;1.00;;;;;;5057497;28;20504;-37
2023/01/10 00:08:01;;;;;;;1.13;0.60;;;6.10;3.10;;;;;;5056864;28;20879;-36
2023/01/10 00:10:27;;;;;;;1.10;0.50;;;6.10;43.10;;;;;;5057884;28;20439;-37
2023/01/10 00:15:37;;;;;;;1.00;0.60;;;6.20;21.90;;;;;;5058297;28;20410;-34
2023/01/10 00:18:03;;;;;;;1.20;0.77;;;6.10;68.50;;;;;;5057689;28;20416;-37
2023/01/10 00:20:29;;;;;;;1.00;0.70;;;6.10;99.90;;;;;;5058192;28;20264;-36
2023/01/10 00:22:55;;;;;;;2.00;0.70;;;6.10;99.90;;;;;;5059465;28;20185;-37
2023/01/10 00:25:21;;;;;;;1.30;0.60;;;6.10;99.90;;;;;;5057537;28;20189;-36
2023/01/10 00:28:03;;;;;;;1.80;0.70;;;6.10;99.90;;;;;;5056716;28;20548;-37
2023/01/10 00:30:29;;;;;;;1.40;0.70;;;6.10;99.90;;;;;;5055670;28;20747;-36
2023/01/10 00:32:55;;;;;;;1.00;0.70;;;6.10;99.90;;;;;;5054572;28;20472;-36
2023/01/10 00:35:21;;;;;;;2.03;1.00;;;6.10;99.90;;;;;;5055565;28;20415;-36
2023/01/10 00:37:47;;;;;;;1.03;0.80;;;6.10;99.90;;;;;;5056487;28;20442;-36
2023/01/10 00:40:12;;;;;;;1.00;0.60;;;6.10;99.90;;;;;;5057885;28;20170;-36
2023/01/10 00:45:25;;;;;;;1.20;0.90;;;6.10;99.90;;;;;;5057602;28;20243;-37
2023/01/10 00:47:51;;;;;;;1.40;1.10;;;6.10;99.90;;;;;;5055876;28;20507;-36
2023/01/10 00:50:17;;;;;;;1.20;0.77;;;6.10;99.90;;;;;;5057997;28;20724;-36
2023/01/10 00:52:43;;;;;;;0.97;0.80;;;6.10;99.90;;;;;;5057592;28;20558;-36
2023/01/10 00:55:09;;;;;;;1.13;0.90;;;6.10;99.90;;;;;;5057462;28;20598;-36
2023/01/10 00:57:34;;;;;;;1.60;0.97;;;6.10;99.90;;;;;;5057754;28;20200;-36
2023/01/10 01:00:00;;;;;;;1.77;0.70;;;6.10;1.00;;;;;;5057751;28;20170;-36
2023/01/10 01:02:26;;;;;;;1.43;1.10;;;6.10;1.00;;;;;;5057552;28;20185;-36
2023/01/10 01:04:51;;;;;;;3.00;0.93;;;6.10;1.00;;;;;;5058431;28;20169;-35
2023/01/10 01:07:17;;;;;;;1.20;0.87;;;6.10;1.00;;;;;;5057568;28;20256;-36
2023/01/10 01:12:27;;;;;;;2.47;1.10;;;6.10;1.00;;;;;;5057767;28;20642;-35
2023/01/10 01:14:52;;;;;;;1.07;0.80;;;6.00;1.00;;;;;;5056250;28;20416;-36
2023/01/10 01:17:18;;;;;;;2.50;1.03;;;6.00;1.00;;;;;;5056487;28;20209;-35
2023/01/10 01:19:44;;;;;;;1.50;0.73;;;6.00;1.00;;;;;;5055154;28;20486;-36
2023/01/10 01:22:10;;;;;;;1.40;0.90;;;6.00;33.20;;;;;;5054786;28;20184;-36
2023/01/10 01:24:35;;;;;;;2.13;0.87;;;6.00;25.80;;;;;;5055460;28;20221;-36
2023/01/10 01:27:01;;;;;;;1.40;0.90;;;6.00;33.50;;;;;;5056860;28;20188;-36
2023/01/10 01:29:26;;;;;;;2.63;0.90;;;6.00;86.80;;;;;;5055325;28;20182;-36
2023/01/10 01:31:52;;;;;;;1.30;0.90;;;6.00;99.90;;;;;;5056109;28;20616;-36
2023/01/10 01:34:18;;;;;;;1.43;1.00;;;6.00;61.80;;;;;;5056358;28;20268;-36
2023/01/10 01:36:44;;;;;;;1.23;0.70;;;5.90;2.70;;;;;;5057686;28;20269;-36
2023/01/10 01:39:09;;;;;;;1.30;0.93;;;5.90;1.00;;;;;;5057406;28;20209;-36
2023/01/10 01:44:19;;;;;;;1.23;0.60;;;5.80;1.00;;;;;;5056373;28;20254;-36
2023/01/10 01:47:05;;;;;;;2.00;0.90;;;5.80;1.00;;;;;;5056647;28;20471;-36
2023/01/10 01:49:31;;;;;;;1.30;0.80;;;5.80;1.00;;;;;;5054889;28;20178;-36
2023/01/10 01:52:01;;;;;;;1.70;0.70;;;5.80;1.00;;;;;;5055718;28;20536;-36
2023/01/10 01:54:28;;;;;;;1.00;0.70;;;5.70;42.80;;;;;;5057112;28;20824;-35
2023/01/10 01:57:01;;;;;;;1.20;0.80;;;5.70;99.90;;;;;;5058159;28;20486;-36
2023/01/10 01:59:35;;;;;;;1.47;0.67;;;5.70;99.90;;;;;;5060681;28;20454;-36
2023/01/10 02:02:05;;;;;;;1.20;0.60;;;5.70;99.90;;;;;;5060174;28;20435;-36
2023/01/10 02:04:45;;;;;;;1.70;0.90;;;5.70;99.90;;;;;;5060201;28;20443;-36
2023/01/10 02:07:11;;;;;;;1.40;0.83;;;5.70;99.90;;;;;;5044330;28;20438;-36
2023/01/10 02:09:41;;;;;;;1.20;0.80;;;5.60;99.90;;;;;;5062231;28;20440;-35
2023/01/10 02:12:08;;;;;;;1.23;0.80;;;5.60;99.90;;;;;;5060723;28;20677;-36
2023/01/10 02:14:35;;;;;;;1.67;0.50;;;5.60;99.90;;;;;;5063112;28;20503;-35
2023/01/10 02:17:01;;;;;;;1.30;0.50;;;5.60;99.90;;;;;;5061766;28;20440;-36
2023/01/10 02:19:42;;;;;;;0.80;0.43;;;5.60;99.90;;;;;;5061722;28;20423;-36
2023/01/10 02:22:26;;;;;;;1.63;0.70;;;5.60;99.90;;;;;;5060611;28;20589;-35
2023/01/10 02:25:09;;;;;;;1.10;0.90;;;5.60;99.90;;;;;;5061720;28;20415;-35
2023/01/10 02:27:53;;;;;;;1.87;0.80;;;5.60;99.90;;;;;;5060814;28;20411;-38
2023/01/10 02:30:40;;;;;;;1.50;0.80;;;5.60;1.00;;;;;;5061125;28;20424;-38
2023/01/10 02:33:21;;;;;;;0.97;0.60;;;5.60;1.00;;;;;;5060744;28;20913;-36
2023/01/10 02:36:15;;;;;;;1.07;0.73;;;5.60;1.00;;;;;;5059591;28;20477;-36
2023/01/10 02:39:00;;;;;;;1.40;0.40;;;5.60;1.00;;;;;;5061694;28;20688;-37
2023/01/10 02:41:32;;;;;;;1.80;0.83;;;5.50;1.00;;;;;;5043011;28;20523;-37
2023/01/10 02:44:29;;;;;;;0.80;0.50;;;5.60;1.00;;;;;;5059217;28;20507;-36
2023/01/10 02:46:55;;;;;;;1.33;0.87;;;5.60;1.00;;;;;;5060361;28;20499;-36
2023/01/10 02:49:46;;;;;;;0.90;0.70;;;5.60;1.00;;;;;;5061470;28;20707;-36
2023/01/10 02:52:22;;;;;;;1.13;0.70;;;5.60;1.00;;;;;;5061071;28;20565;-36
2023/01/10 02:54:50;;;;;;;1.23;0.60;;;5.60;1.00;;;;;;5060503;28;20416;-36
2023/01/10 02:57:40;;;;;;;2.03;0.87;;;5.60;1.00;;;;;;5061200;28;20477;-36
2023/01/10 03:00:18;;;;;;;1.40;0.70;;;5.50;1.00;;;;;;5061048;28;20447;-36
2023/01/10 03:03:06;;;;;;;1.97;0.90;;;5.50;1.00;;;;;;5059688;28;20858;-36
2023/01/10 03:05:50;;;;;;;1.43;1.13;;;5.60;1.00;;;;;;5061091;28;20421;-36
2023/01/10 03:08:41;;;;;;;2.27;0.70;;;5.60;1.00;;;;;;5060076;28;20509;-36
2023/01/10 03:11:09;;;;;;;2.17;1.37;;;5.60;1.00;;;;;;5061041;28;20401;-36
2023/01/10 03:13:53;;;;;;;1.83;1.20;;;5.60;1.00;;;;;;5060396;28;20726;-36
2023/01/10 03:16:22;;;;;;;2.37;1.23;;;5.60;1.00;;;;;;5060151;28;20416;-37
2023/01/10 03:18:53;;;;;;;2.03;0.90;;;5.60;1.00;;;;;;5060738;28;20417;-35
2023/01/10 03:21:21;;;;;;;5.00;1.43;;;5.60;1.00;;;;;;5059543;28;20420;-38
2023/01/10 03:23:49;;;;;;;2.17;1.17;;;5.60;1.00;;;;;;5059590;28;20498;-36
2023/01/10 03:26:16;;;;;;;3.27;1.47;;;5.60;99.90;;;;;;5059912;28;20704;-36
2023/01/10 03:28:48;;;;;;;4.17;2.10;;;5.60;99.90;;;;;;5059214;28;20436;-37
2023/01/10 03:31:21;;;;;;;2.37;1.60;;;5.60;99.90;;;;;;5057683;28;20455;-36
2023/01/10 03:33:48;;;;;;;2.90;1.60;;;5.60;99.90;;;;;;5060201;28;20766;-36
2023/01/10 03:36:25;;;;;;;3.03;1.73;;;5.50;99.90;;;;;;5058700;28;20460;-36
2023/01/10 03:39:15;;;;;;;3.83;1.50;;;5.50;99.90;;;;;;5060401;28;20424;-35
2023/01/10 03:41:49;;;;;;;2.30;1.50;;;5.50;99.90;;;;;;5058989;28;20416;-35
2023/01/10 03:47:26;;;;;;;1.47;1.10;;;5.50;99.90;;;;;;5058760;28;20466;-36
2023/01/10 03:50:05;;;;;;;4.07;1.20;;;5.50;99.90;;;;;;5058544;28;20478;-36
2023/01/10 03:52:33;;;;;;;1.90;1.20;;;5.50;99.90;;;;;;5060656;28;20471;-34
2023/01/10 03:54:59;;;;;;;3.80;1.50;;;5.50;99.90;;;;;;5058967;28;20678;-39
2023/01/10 03:57:25;;;;;;;2.07;1.30;;;5.50;1.00;;;;;;5058157;28;20474;-44
2023/01/10 03:59:56;;;;;;;1.63;1.20;;;5.50;1.00;;;;;;5059465;28;20841;-37
2023/01/10 04:02:25;;;;;;;1.10;0.80;;;5.50;1.00;;;;;;5059772;28;20424;-36
2023/01/10 04:04:50;;;;;;;3.80;1.17;;;5.50;1.00;;;;;;5057649;28;20432;-36
2023/01/10 04:07:16;;;;;;;2.40;1.37;;;5.50;1.00;;;;;;5057413;28;20420;-36
2023/01/10 04:09:42;;;;;;;1.87;0.83;;;5.50;1.00;;;;;;5058767;28;20193;-36
2023/01/10 04:12:07;;;;;;;2.93;1.03;;;5.50;1.00;;;;;;5058441;28;20335;-36
2023/01/10 04:14:33;;;;;;;3.40;1.40;;;5.40;1.00;;;;;;5057211;28;20469;-37
2023/01/10 04:16:58;;;;;;;3.53;1.03;;;5.40;1.00;;;;;;5058238;28;20197;-36
2023/01/10 04:19:25;;;;;;;2.30;0.90;;;5.40;1.00;;;;;;5058083;28;20185;-37
2023/01/10 04:21:50;;;;;;;1.53;0.80;;;5.40;1.00;;;;;;5058916;28;20177;-37
2023/01/10 04:24:16;;;;;;;1.43;0.90;;;5.40;1.00;;;;;;5058060;28;20852;-35
2023/01/10 04:26:41;;;;;;;1.20;0.87;;;5.40;1.00;;;;;;5058141;28;20186;-36
2023/01/10 04:29:07;;;;;;;2.20;0.97;;;5.40;1.00;;;;;;5057507;28;20491;-36
2023/01/10 04:31:33;;;;;;;1.00;0.80;;;5.30;1.00;;;;;;5058030;28;20246;-35
2023/01/10 04:33:59;;;;;;;1.77;0.60;;;5.30;1.00;;;;;;5062093;28;20166;-35
2023/01/10 04:36:24;;;;;;;1.40;0.70;;;5.30;1.00;;;;;;5061156;28;20214;-35
2023/01/10 04:38:50;;;;;;;1.60;0.97;;;5.30;1.00;;;;;;5057571;28;20244;-35
2023/01/10 04:41:16;;;;;;;1.30;0.90;;;5.20;1.00;;;;;;5057960;28;20264;-35
2023/01/10 04:43:41;;;;;;;1.73;0.60;;;5.20;1.00;;;;;;5056815;28;20184;-35
2023/01/10 04:46:07;;;;;;;1.77;1.03;;;5.20;1.00;;;;;;5056613;28;21625;-35
2023/01/10 04:48:33;;;;;;;1.10;0.70;;;5.20;99.90;;;;;;5056223;28;20228;-36
2023/01/10 04:50:59;;;;;;;1.77;0.80;;;5.20;1.00;;;;;;5057540;28;20269;-35
2023/01/10 04:53:24;;;;;;;1.83;0.70;;;5.20;1.00;;;;;;5058084;28;20197;-35
2023/01/10 04:55:50;;;;;;;1.83;0.87;;;5.10;1.00;;;;;;5056115;28;20204;-35
2023/01/10 04:58:15;;;;;;;1.67;1.10;;;5.10;1.00;;;;;;5057587;28;20203;-35
2023/01/10 05:00:41;;;;;;;2.37;1.47;;;5.10;1.00;;;;;;5057264;28;20177;-35
2023/01/10 05:03:07;;;;;;;2.20;1.67;;;5.10;1.00;;;;;;5056406;28;20265;-35
2023/01/10 05:05:33;;;;;;;2.23;1.40;;;5.10;1.00;;;;;;5056954;28;20224;-35
2023/01/10 05:07:58;;;;;;;2.80;1.03;;;5.10;1.00;;;;;;5056177;28;20162;-36
2023/01/10 05:10:24;;;;;;;3.30;1.20;;;5.10;1.00;;;;;;5056271;28;20181;-34
2023/01/10 05:12:50;;;;;;;2.37;1.17;;;5.10;1.00;;;;;;5055590;28;20205;-35
2023/01/10 05:15:15;;;;;;;2.80;1.20;;;5.10;1.00;;;;;;5053588;28;20423;-35
2023/01/10 05:17:42;;;;;;;3.47;2.10;;;5.10;1.00;;;;;;5053427;28;20508;-35
2023/01/10 05:20:08;;;;;;;2.03;1.10;;;5.10;1.00;;;;;;5056500;28;20558;-34
2023/01/10 05:22:34;;;;;;;2.10;1.57;;;5.10;1.00;;;;;;5057629;28;20427;-35
2023/01/10 05:25:00;;;;;;;1.60;1.20;;;5.10;1.00;;;;;;5057051;28;20425;-35
2023/01/10 05:27:25;;;;;;;4.50;1.37;;;5.10;1.00;;;;;;5056710;28;20178;-35
2023/01/10 05:29:51;;;;;;;7.47;2.00;;;5.10;1.00;;;;;;5057331;28;20185;-35
2023/01/10 05:32:16;;;;;;;5.23;2.60;;;5.10;1.00;;;;;;5059556;28;20197;-34
2023/01/10 05:34:42;;;;;;;2.80;1.50;;;5.10;1.00;;;;;;5058257;28;20205;-34
2023/01/10 05:37:08;;;;;;;6.40;1.90;;;5.20;99.90;;;;;;5058541;28;20169;-35
2023/01/10 05:39:33;;;;;;;5.23;2.00;;;5.20;99.90;;;;;;5057091;28;20569;-36
2023/01/10 05:41:59;;;;;;;3.17;2.23;;;5.10;99.90;;;;;;5056988;28;20219;-35
2023/01/10 05:44:25;;;;;;;5.23;1.97;;;5.20;99.90;;;;;;5057827;28;20181;-36
2023/01/10 05:46:50;;;;;;;5.57;2.47;;;5.20;99.90;;;;;;5057413;28;20251;-35
2023/01/10 05:49:16;;;;;;;5.37;2.80;;;5.20;99.90;;;;;;5059312;28;20432;-36
2023/01/10 05:51:42;;;;;;;18.23;3.23;;;5.20;99.90;;;;;;5053777;28;20209;-35
2023/01/10 05:54:07;;;;;;;8.43;2.97;;;5.20;99.90;;;;;;5056291;28;20181;-35
2023/01/10 05:56:33;;;;;;;7.33;2.80;;;5.20;99.90;;;;;;5056192;28;20463;-35
2023/01/10 05:58:59;;;;;;;7.73;2.57;;;5.30;99.90;;;;;;5056206;28;20552;-34
2023/01/10 06:01:25;;;;;;;4.30;2.23;;;5.30;99.90;;;;;;5057211;28;20170;-34
2023/01/10 06:03:50;;;;;;;4.00;2.40;;;5.30;99.90;;;;;;5056381;28;20681;-35
2023/01/10 06:06:16;;;;;;;7.80;2.50;;;5.30;99.90;;;;;;5057475;28;20185;-36
2023/01/10 06:08:42;;;;;;;5.20;2.43;;;5.30;75.60;;;;;;5059656;28;20182;-35
2023/01/10 06:11:07;;;;;;;8.00;3.30;;;5.30;11.50;;;;;;5054013;28;20481;-34
2023/01/10 06:13:33;;;;;;;4.30;1.80;;;5.30;1.00;;;;;;5050379;28;20581;-35
2023/01/10 06:15:59;;;;;;;8.03;2.60;;;5.20;99.90;;;;;;5052824;28;20169;-36
2023/01/10 06:18:25;;;;;;;6.67;2.10;;;5.20;99.90;;;;;;5053138;28;20184;-35
2023/01/10 06:20:51;;;;;;;4.33;1.67;;;5.10;77.30;;;;;;5051477;28;20596;-35
2023/01/10 06:23:17;;;;;;;3.93;2.40;;;5.10;1.00;;;;;;5056494;28;20428;-35
2023/01/10 06:25:43;;;;;;;6.30;1.80;;;5.10;1.00;;;;;;5059587;28;20485;-35
2023/01/10 06:28:09;;;;;;;6.53;2.20;;;5.00;1.00;;;;;;5055844;28;20207;-35
2023/01/10 06:30:35;;;;;;;5.33;1.90;;;5.00;22.40;;;;;;5054386;28;20197;-35
2023/01/10 06:33:02;;;;;;;5.70;2.70;;;5.00;48.40;;;;;;5053793;28;20723;-34
2023/01/10 06:35:28;;;;;;;4.43;2.20;;;5.00;70.40;;;;;;5055674;28;20178;-36
2023/01/10 06:37:54;;;;;;;4.27;1.90;;;5.00;99.20;;;;;;5057494;28;20408;-35
2023/01/10 06:40:20;;;;;;;7.57;2.67;;;5.00;99.90;;;;;;5058299;28;20489;-36
2023/01/10 06:42:45;;;;;;;7.83;3.37;;;5.00;99.90;;;;;;5056774;28;20565;-35
2023/01/10 06:45:11;;;;;;;7.80;2.30;;;5.00;99.90;;;;;;5057904;28;20189;-35
2023/01/10 06:47:37;;;;;;;7.70;2.33;;;5.00;78.70;;;;;;5054325;28;20229;-36
2023/01/10 06:50:04;;;;;;;3.57;1.50;;;5.00;99.90;;;;;;5055841;28;20220;-35
2023/01/10 06:52:30;;;;;;;6.67;2.50;;;5.00;99.90;;;;;;5055459;28;20482;-36
2023/01/10 06:54:55;;;;;;;4.57;1.70;;;5.00;99.90;;;;;;5054266;28;20424;-36
2023/01/10 06:57:21;;;;;;;7.57;2.90;;;5.00;99.90;;;;;;5056086;28;20420;-36
2023/01/10 06:59:47;;;;;;;8.77;2.67;;;5.00;99.90;;;;;;5053141;28;20192;-36
2023/01/10 07:02:13;;;;;;;7.17;3.97;;;5.00;99.90;;;;;;5052528;28;20851;-36
2023/01/10 07:04:39;;;;;;;6.23;2.83;;;5.10;99.90;;;;;;5052712;28;20181;-36
2023/01/10 07:07:05;;;;;;;7.47;3.13;;;5.00;99.90;;;;;;5054004;28;20438;-35
2023/01/10 07:09:30;;;;;;;6.40;2.60;;;5.10;99.90;;;;;;5057926;28;20298;-36
2023/01/10 07:11:56;;;;;;;5.73;2.10;;;5.10;99.90;;;;;;5055640;28;20243;-36
2023/01/10 07:14:22;;;;;;;4.43;1.87;;;5.10;99.90;;;;;;5055869;28;20174;-36
2023/01/10 07:16:48;;;;;;;5.10;2.00;;;5.10;99.90;;;;;;5055467;28;20178;-35
2023/01/10 07:19:14;;;;;;;7.50;1.90;;;5.10;99.90;;;;;;5056899;28;20436;-36
2023/01/10 07:21:40;;;;;;;5.37;1.70;;;5.10;98.10;;;;;;5056637;28;20430;-36
2023/01/10 07:24:06;;;;;;;4.67;2.10;;;5.20;57.50;;;;;;5056636;28;20909;-36
2023/01/10 07:26:32;;;;;;;6.07;1.77;;;5.20;1.00;;;;;;5039828;28;20281;-35
2023/01/10 07:28:58;;;;;;;5.77;2.47;;;5.20;1.00;;;;;;5038791;28;20949;-36
2023/01/10 07:31:24;;;;;;;8.50;2.30;;;5.20;1.00;;;;;;5057140;28;20223;-36
2023/01/10 07:33:50;;;;;;;5.00;2.30;;;5.20;1.00;;;;;;5057262;28;20196;-36
2023/01/10 07:36:16;;;;;;;6.30;2.00;;;5.20;1.00;;;;;;5055403;28;20417;-36
2023/01/10 07:38:42;;;;;;;5.50;2.20;;;5.30;1.00;;;;;;5056283;28;20444;-36
2023/01/10 07:41:08;;;;;;;5.60;1.70;;;5.30;1.00;;;;;;5056534;28;20407;-36
2023/01/10 07:43:34;;;;;;;3.83;2.23;;;5.30;99.90;;;;;;5055891;28;20217;-36
2023/01/10 07:46:01;;;;;;;8.57;2.17;;;5.40;99.90;;;;;;5053262;28;20408;-36
2023/01/10 07:48:28;;;;;;;6.00;2.57;;;5.40;99.90;;;;;;5056071;28;20956;-37
2023/01/10 07:50:57;;;;;;;7.90;3.27;;;5.40;99.90;;;;;;5053809;28;20427;-36
2023/01/10 07:53:24;;;;;;;7.40;2.47;;;5.40;99.90;;;;;;5055632;28;20557;-36
2023/01/10 07:55:49;;;;;;;6.63;2.43;;;5.50;39.60;;;;;;5056122;28;20416;-35
2023/01/10 07:58:15;;;;;;;6.03;3.00;;;5.50;1.00;;;;;;5054868;28;21011;-36
2023/01/10 08:00:41;;;;;;;6.43;2.40;;;5.50;1.00;;;;;;5054719;28;20174;-36
2023/01/10 08:03:09;;;;;;;5.83;2.30;;;5.50;1.00;;;;;;5055351;28;20209;-38
2023/01/10 08:05:35;;;;;;;5.23;2.60;;;5.60;1.00;;;;;;5056974;28;20181;-36
2023/01/10 08:08:08;;;;;;;3.33;1.60;;;5.60;1.00;;;;;;5055902;28;20485;-37
2023/01/10 08:10:34;;;;;;;5.00;2.43;;;5.70;1.00;;;;;;5058005;28;20177;-36
2023/01/10 08:13:00;;;;;;;5.00;2.50;;;5.70;1.00;;;;;;5038525;28;20802;-36
2023/01/10 08:15:26;;;;;;;4.77;2.30;;;5.80;1.00;;;;;;5054596;28;20412;-36
2023/01/10 08:17:52;;;;;;;8.00;2.50;;;5.80;1.00;;;;;;5056782;28;20261;-36
2023/01/10 08:20:17;;;;;;;5.10;2.00;;;5.90;99.90;;;;;;5055957;28;20174;-36
2023/01/10 08:22:43;;;;;;;10.03;3.30;;;5.90;99.90;;;;;;5056035;28;20479;-36
2023/01/10 08:25:09;;;;;;;7.13;2.40;;;6.00;99.90;;;;;;5055787;28;20189;-36
2023/01/10 08:27:34;;;;;;;4.77;2.20;;;6.10;99.90;;;;;;5054336;28;20195;-36
2023/01/10 08:30:00;;;;;;;7.50;2.10;;;6.10;13.20;;;;;;5052766;28;20205;-36
2023/01/10 08:32:26;;;;;;;5.47;1.90;;;6.30;1.00;;;;;;5051873;28;20584;-36
2023/01/10 08:34:51;;;;;;;4.13;2.13;;;6.30;1.00;;;;;;5052494;28;20588;-36
2023/01/10 08:37:17;;;;;;;3.70;2.30;;;6.30;1.00;;;;;;5054069;28;20184;-35
2023/01/10 08:39:42;;;;;;;6.17;2.10;;;6.40;99.90;;;;;;5053781;28;20174;-36
2023/01/10 08:42:08;;;;;;;6.07;2.23;;;6.50;99.90;;;;;;5052861;28;20201;-35
2023/01/10 08:44:34;;;;;;;6.30;2.30;;;6.50;99.90;;;;;;5053248;28;20232;-36
2023/01/10 08:47:00;;;;;;;8.70;2.53;;;6.60;99.90;;;;;;5054851;28;20783;-36
2023/01/10 08:49:25;;;;;;;7.40;2.20;;;6.70;99.90;;;;;;5056209;28;20436;-36
2023/01/10 08:51:51;;;;;;;5.93;2.27;;;6.70;99.90;;;;;;5056601;28;20205;-36
2023/01/10 08:54:16;;;;;;;6.77;2.03;;;6.80;99.90;;;;;;5057501;28;20600;-36
2023/01/10 08:56:42;;;;;;;5.03;2.30;;;6.80;44.20;;;;;;5059305;28;20264;-36
2023/01/10 08:59:08;;;;;;;5.83;1.97;;;6.90;4.50;;;;;;5058411;28;20252;-37
2023/01/10 09:01:34;;;;;;;5.03;1.83;;;6.90;1.00;;;;;;5059308;28;20450;-36
2023/01/10 09:03:59;;;;;;;5.03;2.20;;;6.80;1.00;;;;;;5061304;28;20466;-36
2023/01/10 09:06:25;;;;;;;5.30;2.10;;;6.90;9.20;;;;;;5059521;28;20428;-37
2023/01/10 09:08:51;;;;;;;4.77;2.70;;;6.80;40.80;;;;;;5056928;28;20205;-36
2023/01/10 09:11:16;;;;;;;7.77;2.30;;;6.90;47.50;;;;;;5055924;28;20633;-36
2023/01/10 09:13:42;;;;;;;10.37;3.27;;;6.90;61.40;;;;;;5054371;28;20445;-35
2023/01/10 09:16:08;;;;;;;7.00;3.20;;;6.90;84.50;;;;;;5054236;28;20561;-36
2023/01/10 09:18:33;;;;;;;4.67;2.60;;;6.90;99.90;;;;;;5055458;28;20251;-36
2023/01/10 09:20:59;;;;;;;5.33;2.30;;;6.80;99.90;;;;;;5054376;28;20174;-35
2023/01/10 09:23:25;;;;;;;6.23;2.60;;;6.90;99.90;;;;;;5054807;28;20272;-37
2023/01/10 09:25:52;;;;;;;6.63;2.87;;;6.90;99.90;;;;;;5052597;28;20424;-36
2023/01/10 09:28:19;;;;;;;4.60;2.57;;;6.90;99.90;;;;;;5054205;28;20182;-37
2023/01/10 09:30:45;;;;;;;8.90;3.57;;;7.00;99.90;;;;;;5055513;28;20419;-36
2023/01/10 09:33:12;;;;;;;5.60;2.77;;;7.10;99.90;;;;;;5054415;28;20551;-36
2023/01/10 09:35:39;;;;;;;5.73;2.67;;;7.10;99.90;;;;;;5054968;28;20408;-36
2023/01/10 09:38:07;;;;;;;8.00;2.97;;;7.20;99.90;;;;;;5053291;28;20428;-36
2023/01/10 09:40:43;;;;;;;5.67;2.80;;;7.30;99.90;;;;;;5054426;28;20716;-36
2023/01/10 09:43:33;;;;;;;10.57;3.23;;;7.40;99.90;;;;;;5055737;28;20851;-36
2023/01/10 09:46:04;;;;;;;4.57;2.60;;;7.50;8.90;;;;;;5057018;28;20796;-43
2023/01/10 09:48:52;;;;;;;5.60;2.57;;;7.60;1.00;;;;;;5056582;28;20917;-35
2023/01/10 09:51:47;;;;;;;3.30;2.03;;;7.70;1.00;;;;;;5054726;28;20424;-36
2023/01/10 09:54:28;;;;;;;3.93;1.60;;;7.70;1.00;;;;;;5053177;28;20843;-36
2023/01/10 09:56:54;;;;;;;7.97;2.33;;;8.30;99.90;;;;;;5052191;28;20408;-36
2023/01/10 09:59:22;;;;;;;5.03;1.90;;;8.90;99.90;;;;;;5053420;28;20693;-44
2023/01/10 10:01:53;;;;;;;4.57;2.27;;;9.50;99.90;;;;;;5052526;28;20420;-36
2023/01/10 10:04:23;;;;;;;3.33;1.70;;;10.00;99.90;;;;;;5056855;28;20428;-36
2023/01/10 10:06:50;;;;;;;3.97;2.00;;;10.60;73.20;;;;;;5056339;28;20426;-37
2023/01/10 10:09:20;;;;;;;4.07;1.90;;;11.10;99.90;;;;;;5055342;28;20823;-37
2023/01/10 10:11:49;;;;;;;4.57;1.60;;;11.70;99.90;;;;;;5055176;28;20459;-38
2023/01/10 10:14:32;;;;;;;4.73;1.70;;;12.60;99.90;;;;;;5055080;28;20427;-37
2023/01/10 10:17:26;;;;;;;4.67;2.17;;;13.90;1.00;;;;;;5056630;28;20441;-37
2023/01/10 10:20:01;;;;;;;2.77;1.40;;;14.50;99.90;;;;;;5059110;28;20427;-37
2023/01/10 10:22:52;;;;;;;5.40;1.93;;;14.60;1.00;;;;;;5059085;28;20423;-37
2023/01/10 10:25:37;;;;;;;2.57;1.67;;;14.30;1.00;;;;;;5058849;28;20427;-37
2023/01/10 10:28:30;;;;;;;3.13;1.60;;;14.00;1.00;;;;;;5057751;28;20435;-37
2023/01/10 10:31:13;;;;;;;5.40;1.57;;;13.70;1.00;;;;;;5058541;28;20427;-37
2023/01/10 10:33:49;;;;;;;5.30;2.27;;;13.40;1.00;;;;;;5058425;28;20431;-37
2023/01/10 10:36:38;;;;;;;3.70;1.63;;;13.10;1.00;;;;;;5060286;28;20447;-36
2023/01/10 10:39:06;;;;;;;3.20;2.00;;;12.80;1.00;;;;;;5058310;28;20428;-35
2023/01/10 10:41:37;;;;;;;2.93;1.90;;;12.40;1.00;;;;;;5057181;28;20516;-36
2023/01/10 10:44:28;;;;;;;4.60;2.03;;;12.10;1.00;;;;;;5057428;28;20494;-37
2023/01/10 10:46:56;;;;;;;6.80;2.10;;;11.80;1.00;;;;;;5036746;28;20469;-37
2023/01/10 10:49:37;;;;;;;4.00;1.83;;;11.70;1.00;;;;;;5038243;28;20716;-37
2023/01/10 10:52:22;;;;;;;2.83;1.73;;;11.60;1.00;;;;;;5037347;28;20503;-36
2023/01/10 10:54:49;;;;;;;4.40;2.10;;;11.70;1.00;;;;;;5037622;28;20421;-36
2023/01/10 10:57:15;;;;;;;7.73;2.20;;;11.70;1.00;;;;;;5037720;28;20586;-37
2023/01/10 10:59:43;;;;;;;4.90;1.53;;;11.80;1.00;;;;;;5037848;28;20518;-37
2023/01/10 11:02:26;;;;;;;6.60;2.23;;;11.80;1.00;;;;;;5035247;28;20418;-36
2023/01/10 11:04:56;;;;;;;7.20;2.50;;;11.70;1.00;;;;;;5038103;28;20425;-37
2023/01/10 11:07:22;;;;;;;4.60;2.10;;;11.50;1.00;;;;;;5036051;28;20412;-36
2023/01/10 11:12:33;;;;;;;3.97;1.80;;;11.20;1.00;;;;;;5057012;28;20467;-36
2023/01/10 11:15:00;;;;;;;2.97;1.50;;;11.20;1.00;;;;;;5055747;28;20727;-38
2023/01/10 11:17:28;;;;;;;3.47;1.80;;;11.30;1.00;;;;;;5055892;28;20165;-36
2023/01/10 11:20:19;;;;;;;6.73;1.80;;;11.40;1.00;;;;;;5055804;28;20815;-37
2023/01/10 11:22:48;;;;;;;7.37;2.60;;;11.40;1.00;;;;;;5054457;28;20537;-37
2023/01/10 11:25:19;;;;;;;3.93;1.90;;;11.60;1.00;;;;;;5053924;28;20669;-37
2023/01/10 11:27:57;;;;;;;6.57;2.73;;;11.60;1.00;;;;;;5053741;28;20509;-37
2023/01/10 11:30:25;;;;;;;5.93;2.70;;;11.80;1.00;;;;;;5055688;28;20974;-37
2023/01/10 11:33:02;;;;;;;3.77;1.50;;;11.90;1.00;;;;;;5056799;28;20628;-37
2023/01/10 11:35:32;;;;;;;4.00;1.60;;;12.00;1.00;;;;;;5057109;28;20699;-37
2023/01/10 11:38:03;;;;;;;2.70;1.60;;;12.30;1.00;;;;;;5056382;28;20404;-37
2023/01/10 11:40:31;;;;;;;5.50;2.00;;;12.70;1.00;;;;;;5057078;28;20829;-36
2023/01/10 11:42:57;;;;;;;4.43;1.87;;;13.10;1.00;;;;;;5056692;28;20428;-37
2023/01/10 11:45:30;;;;;;;6.23;1.60;;;13.70;1.00;;;;;;5056166;28;20704;-37
2023/01/10 11:48:09;;;;;;;3.73;2.03;;;14.00;1.00;;;;;;5057375;28;20452;-37
2023/01/10 11:50:38;;;;;;;5.80;1.83;;;14.30;1.00;;;;;;5056852;28;20416;-37
2023/01/10 11:53:05;;;;;;;7.03;1.80;;;15.00;1.00;;;;;;5057671;28;20570;-37
2023/01/10 11:55:33;;;;;;;5.00;1.90;;;16.10;1.00;;;;;;5057085;28;20818;-36
2023/01/10 11:58:06;;;;;;;4.87;1.50;;;17.60;1.00;;;;;;5057421;28;20880;-37
2023/01/10 12:00:40;;;;;;;3.63;1.73;;;19.50;1.00;;;;;;5051313;28;20445;-36
2023/01/10 12:03:28;;;;;;;3.20;1.40;;;21.50;1.00;;;;;;5036157;28;20496;-36
2023/01/10 12:06:00;;;;;;;3.10;1.40;;;22.70;1.00;;;;;;5050051;28;20467;-36
2023/01/10 12:08:31;;;;;;;2.80;1.40;;;22.40;1.00;;;;;;5051417;28;20444;-37
2023/01/10 12:11:05;;;;;;;3.00;1.33;;;21.50;1.00;;;;;;5054884;28;20408;-36
2023/01/10 12:13:48;;;;;;;3.40;1.50;;;20.70;1.00;;;;;;5052565;28;20571;-36
2023/01/10 12:16:21;;;;;;;4.03;1.73;;;19.80;1.00;;;;;;5052405;28;20725;-36
2023/01/10 12:18:54;;;;;;;2.50;1.60;;;19.50;1.00;;;;;;5054797;28;20841;-37
2023/01/10 12:21:26;;;;;;;3.87;1.70;;;19.70;1.00;;;;;;5052848;28;20417;-37
2023/01/10 12:23:53;;;;;;;3.00;1.40;;;19.20;1.00;;;;;;5053053;28;20454;-36
2023/01/10 12:26:19;;;;;;;2.90;1.57;;;18.40;1.00;;;;;;5050550;28;20471;-35
2023/01/10 12:28:51;;;;;;;3.07;1.73;;;17.70;1.00;;;;;;5034355;28;20436;-36
2023/01/10 12:31:19;;;;;;;2.80;1.27;;;17.00;1.00;;;;;;5049938;28;20701;-36
2023/01/10 12:33:48;;;;;;;4.10;1.93;;;16.30;1.00;;;;;;5033708;28;20447;-37
2023/01/10 12:36:40;;;;;;;4.30;1.73;;;15.60;1.00;;;;;;5049923;28;20420;-35
2023/01/10 12:39:22;;;;;;;4.90;1.77;;;14.90;1.00;;;;;;5051267;28;20863;-36
2023/01/10 12:45:11;;;;;;;3.37;1.30;;;13.90;1.00;;;;;;5051354;28;20446;-36
2023/01/10 12:47:54;;;;;;;3.73;1.60;;;13.60;1.00;;;;;;5053381;28;20537;-36
2023/01/10 12:50:52;;;;;;;2.30;1.13;;;13.70;1.00;;;;;;5051869;28;21006;-35
2023/01/10 12:53:32;;;;;;;3.77;1.43;;;14.10;1.00;;;;;;5051671;28;20483;-38
2023/01/10 12:56:03;;;;;;;5.80;1.93;;;14.30;1.00;;;;;;5052596;28;20412;-36
2023/01/10 12:58:37;;;;;;;3.53;1.50;;;14.50;1.00;;;;;;5053315;28;20712;-36
2023/01/10 13:01:05;;;;;;;2.73;1.40;;;14.80;1.00;;;;;;5052765;28;20692;-38
2023/01/10 13:03:32;;;;;;;5.23;1.57;;;15.50;1.00;;;;;;5052939;28;20439;-36
2023/01/10 13:05:59;;;;;;;4.00;1.60;;;16.40;1.00;;;;;;5051758;28;20427;-36
2023/01/10 13:08:33;;;;;;;8.27;2.03;;;16.40;1.00;;;;;;5051088;28;20598;-36
2023/01/10 13:11:01;;;;;;;3.20;1.30;;;16.10;1.00;;;;;;5051570;28;20908;-36
2023/01/10 13:13:41;;;;;;;4.50;1.80;;;15.60;1.00;;;;;;5050481;28;20802;-36
2023/01/10 13:16:47;;;;;;;3.40;1.30;;;15.10;1.00;;;;;;5056393;28;20669;-36
2023/01/10 13:19:13;;;;;;;3.97;1.70;;;14.70;1.00;;;;;;5013390;28;20723;-36
2023/01/10 13:21:42;;;;;;;5.00;2.00;;;14.40;1.00;;;;;;5056668;28;20400;-36
2023/01/10 13:24:14;;;;;;;3.57;1.60;;;14.30;1.00;;;;;;5039792;28;20480;-36
2023/01/10 13:26:50;;;;;;;5.13;2.10;;;14.40;1.00;;;;;;5057274;28;20505;-35
2023/01/10 13:29:24;;;;;;;5.63;2.30;;;14.30;1.00;;;;;;5056866;28;20843;-35
2023/01/10 13:31:56;;;;;;;3.07;1.40;;;14.20;1.00;;;;;;5037483;28;20483;-36
2023/01/10 13:34:24;;;;;;;4.80;1.30;;;14.20;1.00;;;;;;5055955;28;20428;-36